sensor_id;sensor_type;location;lat;lon;timestamp;temperature;humidity
6407;DHT22;3236;51.022;6.818;2022-11-27T00:00:58;4.40;99.90
6407;DHT22;3236;51.022;6.818;2022-11-27T00:03:25;4.40;99.90
6407;DHT22;3236;51.022;6.818;2022-11-27T00:05:53;4.40;99.90
6407;DHT22;3236;51.022;6.818;2022-11-27T00:08:20;4.40;99.90
6407;DHT22;3236;51.022;6.818;2022-11-27T00:10:48;4.40;99.90
6407;DHT22;3236;51.022;6.818;2022-11-27T00:13:15;4.40;99.90
6407;DHT22;3236;51.022;6.818;2022-11-27T00:15:42;4.40;99.90
6407;DHT22;3236;51.022;6.818;2022-11-27T00:18:09;4.40;99.90
6407;DHT22;3236;51.022;6.818;2022-11-27T00:20:36;4.40;99.90
6407;DHT22;3236;51.022;6.818;2022-11-27T00:23:03;4.50;99.90
6407;DHT22;3236;51.022;6.818;2022-11-27T00:25:29;4.50;99.90
6407;DHT22;3236;51.022;6.818;2022-11-27T00:27:58;4.60;99.90
6407;DHT22;3236;51.022;6.818;2022-11-27T00:30:26;4.60;99.90
6407;DHT22;3236;51.022;6.818;2022-11-27T00:32:53;4.60;99.90
6407;DHT22;3236;51.022;6.818;2022-11-27T00:35:20;4.50;99.90
6407;DHT22;3236;51.022;6.818;2022-11-27T00:37:46;4.60;99.90
6407;DHT22;3236;51.022;6.818;2022-11-27T00:40:13;4.60;99.90
6407;DHT22;3236;51.022;6.818;2022-11-27T00:42:40;4.60;99.90
6407;DHT22;3236;51.022;6.818;2022-11-27T00:45:10;4.60;99.90
6407;DHT22;3236;51.022;6.818;2022-11-27T00:47:37;4.60;99.90
6407;DHT22;3236;51.022;6.818;2022-11-27T00:50:06;4.60;99.90
6407;DHT22;3236;51.022;6.818;2022-11-27T00:52:32;4.60;99.90
6407;DHT22;3236;51.022;6.818;2022-11-27T00:54:59;4.60;99.90
6407;DHT22;3236;51.022;6.818;2022-11-27T00:57:26;4.70;99.90
6407;DHT22;3236;51.022;6.818;2022-11-27T00:59:53;4.70;99.90
6407;DHT22;3236;51.022;6.818;2022-11-27T01:02:21;4.60;99.90
6407;DHT22;3236;51.022;6.818;2022-11-27T01:04:48;4.70;99.90
6407;DHT22;3236;51.022;6.818;2022-11-27T01:07:15;4.60;99.90
6407;DHT22;3236;51.022;6.818;2022-11-27T01:09:45;4.50;99.90
6407;DHT22;3236;51.022;6.818;2022-11-27T01:12:12;4.60;99.90
6407;DHT22;3236;51.022;6.818;2022-11-27T01:14:45;4.50;99.90
6407;DHT22;3236;51.022;6.818;2022-11-27T01:17:12;4.60;99.90
6407;DHT22;3236;51.022;6.818;2022-11-27T01:19:40;4.60;99.90
6407;DHT22;3236;51.022;6.818;2022-11-27T01:22:10;4.50;99.90
6407;DHT22;3236;51.022;6.818;2022-11-27T01:24:37;4.60;99.90
6407;DHT22;3236;51.022;6.818;2022-11-27T01:27:04;4.70;99.90
6407;DHT22;3236;51.022;6.818;2022-11-27T01:29:33;6.40;99.90
6407;DHT22;3236;51.022;6.818;2022-11-27T01:32:00;4.70;99.90
6407;DHT22;3236;51.022;6.818;2022-11-27T01:34:27;4.80;99.90
6407;DHT22;3236;51.022;6.818;2022-11-27T01:36:56;4.80;99.90
6407;DHT22;3236;51.022;6.818;2022-11-27T01:39:22;4.80;99.90
6407;DHT22;3236;51.022;6.818;2022-11-27T01:41:49;4.80;99.90
6407;DHT22;3236;51.022;6.818;2022-11-27T01:47:02;4.80;99.90
6407;DHT22;3236;51.022;6.818;2022-11-27T01:49:31;4.70;99.90
6407;DHT22;3236;51.022;6.818;2022-11-27T01:52:00;5.00;99.90
6407;DHT22;3236;51.022;6.818;2022-11-27T01:54:28;4.70;99.90
6407;DHT22;3236;51.022;6.818;2022-11-27T01:56:58;4.60;99.90
6407;DHT22;3236;51.022;6.818;2022-11-27T01:59:26;4.60;99.90
6407;DHT22;3236;51.022;6.818;2022-11-27T02:01:53;4.60;99.90
6407;DHT22;3236;51.022;6.818;2022-11-27T02:04:21;4.70;99.90
6407;DHT22;3236;51.022;6.818;2022-11-27T02:06:48;4.70;99.90
6407;DHT22;3236;51.022;6.818;2022-11-27T02:09:16;4.70;99.90
6407;DHT22;3236;51.022;6.818;2022-11-27T02:11:45;4.70;99.90
6407;DHT22;3236;51.022;6.818;2022-11-27T02:14:17;4.70;99.90
6407;DHT22;3236;51.022;6.818;2022-11-27T02:16:50;4.70;99.90
6407;DHT22;3236;51.022;6.818;2022-11-27T02:19:23;4.60;99.90
6407;DHT22;3236;51.022;6.818;2022-11-27T02:21:53;4.70;99.90
6407;DHT22;3236;51.022;6.818;2022-11-27T02:27:16;4.50;99.90
6407;DHT22;3236;51.022;6.818;2022-11-27T02:29:48;4.50;99.90
6407;DHT22;3236;51.022;6.818;2022-11-27T02:32:20;4.60;99.90
6407;DHT22;3236;51.022;6.818;2022-11-27T02:34:53;4.60;99.90
6407;DHT22;3236;51.022;6.818;2022-11-27T02:37:26;4.60;99.90
6407;DHT22;3236;51.022;6.818;2022-11-27T02:40:00;4.50;99.90
6407;DHT22;3236;51.022;6.818;2022-11-27T02:42:28;4.60;99.90
6407;DHT22;3236;51.022;6.818;2022-11-27T02:44:59;4.50;99.90
6407;DHT22;3236;51.022;6.818;2022-11-27T02:47:29;4.50;99.90
6407;DHT22;3236;51.022;6.818;2022-11-27T02:49:56;4.40;99.90
6407;DHT22;3236;51.022;6.818;2022-11-27T02:52:25;4.50;99.90
6407;DHT22;3236;51.022;6.818;2022-11-27T02:54:53;4.50;99.90
6407;DHT22;3236;51.022;6.818;2022-11-27T02:57:22;4.50;99.90
6407;DHT22;3236;51.022;6.818;2022-11-27T02:59:49;4.40;99.90
6407;DHT22;3236;51.022;6.818;2022-11-27T03:02:21;4.40;99.90
6407;DHT22;3236;51.022;6.818;2022-11-27T03:04:49;4.40;99.90
6407;DHT22;3236;51.022;6.818;2022-11-27T03:07:20;4.40;99.90
6407;DHT22;3236;51.022;6.818;2022-11-27T03:09:48;4.50;99.90
6407;DHT22;3236;51.022;6.818;2022-11-27T03:12:18;4.40;99.90
6407;DHT22;3236;51.022;6.818;2022-11-27T03:14:45;4.40;99.90
6407;DHT22;3236;51.022;6.818;2022-11-27T03:17:16;4.50;99.90
6407;DHT22;3236;51.022;6.818;2022-11-27T03:19:50;4.40;99.90
6407;DHT22;3236;51.022;6.818;2022-11-27T03:22:19;4.10;99.90
6407;DHT22;3236;51.022;6.818;2022-11-27T03:24:45;4.40;99.90
6407;DHT22;3236;51.022;6.818;2022-11-27T03:27:14;4.40;99.90
6407;DHT22;3236;51.022;6.818;2022-11-27T03:29:45;4.50;99.90
6407;DHT22;3236;51.022;6.818;2022-11-27T03:32:13;4.50;99.90
6407;DHT22;3236;51.022;6.818;2022-11-27T03:34:43;4.50;99.90
6407;DHT22;3236;51.022;6.818;2022-11-27T03:37:11;4.50;99.90
6407;DHT22;3236;51.022;6.818;2022-11-27T03:42:13;4.60;99.90
6407;DHT22;3236;51.022;6.818;2022-11-27T03:44:43;4.60;99.90
6407;DHT22;3236;51.022;6.818;2022-11-27T03:47:15;4.60;99.90
6407;DHT22;3236;51.022;6.818;2022-11-27T03:49:50;4.70;99.90
6407;DHT22;3236;51.022;6.818;2022-11-27T03:52:22;4.70;99.90
6407;DHT22;3236;51.022;6.818;2022-11-27T03:54:55;4.90;99.90
6407;DHT22;3236;51.022;6.818;2022-11-27T03:57:26;4.70;99.90
6407;DHT22;3236;51.022;6.818;2022-11-27T03:59:54;4.70;99.90
6407;DHT22;3236;51.022;6.818;2022-11-27T04:02:26;4.70;99.90
6407;DHT22;3236;51.022;6.818;2022-11-27T04:04:53;4.70;99.90
6407;DHT22;3236;51.022;6.818;2022-11-27T04:07:22;4.70;99.90
6407;DHT22;3236;51.022;6.818;2022-11-27T04:09:48;4.70;99.90
6407;DHT22;3236;51.022;6.818;2022-11-27T04:12:15;4.70;99.90
6407;DHT22;3236;51.022;6.818;2022-11-27T04:14:42;4.70;99.90
6407;DHT22;3236;51.022;6.818;2022-11-27T04:17:12;4.70;99.90
6407;DHT22;3236;51.022;6.818;2022-11-27T04:19:39;4.80;99.90
6407;DHT22;3236;51.022;6.818;2022-11-27T04:22:06;4.80;99.90
6407;DHT22;3236;51.022;6.818;2022-11-27T04:24:34;4.70;99.90
6407;DHT22;3236;51.022;6.818;2022-11-27T04:27:01;4.80;99.90
6407;DHT22;3236;51.022;6.818;2022-11-27T04:29:28;4.80;99.90
6407;DHT22;3236;51.022;6.818;2022-11-27T04:31:54;4.80;99.90
6407;DHT22;3236;51.022;6.818;2022-11-27T04:34:21;4.80;99.90
6407;DHT22;3236;51.022;6.818;2022-11-27T04:36:48;4.80;99.90
6407;DHT22;3236;51.022;6.818;2022-11-27T04:39:15;4.80;99.90
6407;DHT22;3236;51.022;6.818;2022-11-27T04:41:43;3.50;99.90
6407;DHT22;3236;51.022;6.818;2022-11-27T04:44:10;4.80;99.90
6407;DHT22;3236;51.022;6.818;2022-11-27T04:46:37;5.70;99.90
6407;DHT22;3236;51.022;6.818;2022-11-27T04:49:04;4.80;99.90
6407;DHT22;3236;51.022;6.818;2022-11-27T04:51:31;4.80;99.90
6407;DHT22;3236;51.022;6.818;2022-11-27T04:54:01;4.80;99.90
6407;DHT22;3236;51.022;6.818;2022-11-27T04:56:28;4.90;99.90
6407;DHT22;3236;51.022;6.818;2022-11-27T04:59:00;4.80;99.90
6407;DHT22;3236;51.022;6.818;2022-11-27T05:01:26;4.90;99.90
6407;DHT22;3236;51.022;6.818;2022-11-27T05:03:53;4.90;99.90
6407;DHT22;3236;51.022;6.818;2022-11-27T05:06:23;4.90;99.90
6407;DHT22;3236;51.022;6.818;2022-11-27T05:08:50;4.90;99.90
6407;DHT22;3236;51.022;6.818;2022-11-27T05:11:17;4.90;99.90
6407;DHT22;3236;51.022;6.818;2022-11-27T05:13:43;4.90;99.90
6407;DHT22;3236;51.022;6.818;2022-11-27T05:16:15;4.90;99.90
6407;DHT22;3236;51.022;6.818;2022-11-27T05:18:41;4.90;99.90
6407;DHT22;3236;51.022;6.818;2022-11-27T05:21:08;4.90;99.90
6407;DHT22;3236;51.022;6.818;2022-11-27T05:23:35;4.90;99.90
6407;DHT22;3236;51.022;6.818;2022-11-27T05:26:02;4.90;99.90
6407;DHT22;3236;51.022;6.818;2022-11-27T05:28:29;4.90;99.90
6407;DHT22;3236;51.022;6.818;2022-11-27T05:30:56;4.90;99.90
6407;DHT22;3236;51.022;6.818;2022-11-27T05:33:25;4.90;99.90
6407;DHT22;3236;51.022;6.818;2022-11-27T05:35:52;5.00;99.90
6407;DHT22;3236;51.022;6.818;2022-11-27T05:38:19;4.90;99.90
6407;DHT22;3236;51.022;6.818;2022-11-27T05:40:45;4.90;99.90
6407;DHT22;3236;51.022;6.818;2022-11-27T05:43:13;5.00;99.90
6407;DHT22;3236;51.022;6.818;2022-11-27T05:45:39;5.00;99.90
6407;DHT22;3236;51.022;6.818;2022-11-27T05:48:06;5.00;99.90
6407;DHT22;3236;51.022;6.818;2022-11-27T05:50:34;5.00;99.90
6407;DHT22;3236;51.022;6.818;2022-11-27T05:53:02;5.00;99.90
6407;DHT22;3236;51.022;6.818;2022-11-27T05:55:28;5.00;99.90
6407;DHT22;3236;51.022;6.818;2022-11-27T05:57:55;5.00;99.90
6407;DHT22;3236;51.022;6.818;2022-11-27T06:00:22;3.90;99.90
6407;DHT22;3236;51.022;6.818;2022-11-27T06:02:51;5.00;99.90
6407;DHT22;3236;51.022;6.818;2022-11-27T06:05:18;4.90;99.90
6407;DHT22;3236;51.022;6.818;2022-11-27T06:07:52;5.10;99.90
6407;DHT22;3236;51.022;6.818;2022-11-27T06:10:19;5.10;99.90
6407;DHT22;3236;51.022;6.818;2022-11-27T06:12:46;5.00;99.90
6407;DHT22;3236;51.022;6.818;2022-11-27T06:15:13;5.00;99.90
6407;DHT22;3236;51.022;6.818;2022-11-27T06:17:40;5.00;99.90
6407;DHT22;3236;51.022;6.818;2022-11-27T06:20:07;5.00;99.90
6407;DHT22;3236;51.022;6.818;2022-11-27T06:22:34;5.00;99.90
6407;DHT22;3236;51.022;6.818;2022-11-27T06:25:02;5.10;99.90
6407;DHT22;3236;51.022;6.818;2022-11-27T06:27:31;5.00;99.90
6407;DHT22;3236;51.022;6.818;2022-11-27T06:29:58;5.10;99.90
6407;DHT22;3236;51.022;6.818;2022-11-27T06:32:24;5.10;99.90
6407;DHT22;3236;51.022;6.818;2022-11-27T06:34:52;5.10;99.90
6407;DHT22;3236;51.022;6.818;2022-11-27T06:37:18;7.20;99.90
6407;DHT22;3236;51.022;6.818;2022-11-27T06:39:46;5.20;99.90
6407;DHT22;3236;51.022;6.818;2022-11-27T06:42:14;5.10;99.90
6407;DHT22;3236;51.022;6.818;2022-11-27T06:44:41;5.10;99.90
6407;DHT22;3236;51.022;6.818;2022-11-27T06:47:08;5.20;99.90
6407;DHT22;3236;51.022;6.818;2022-11-27T06:49:35;5.20;99.90
6407;DHT22;3236;51.022;6.818;2022-11-27T06:52:02;5.20;99.90
6407;DHT22;3236;51.022;6.818;2022-11-27T06:54:28;5.10;99.90
6407;DHT22;3236;51.022;6.818;2022-11-27T06:56:55;5.20;99.90
6407;DHT22;3236;51.022;6.818;2022-11-27T06:59:24;5.20;99.90
6407;DHT22;3236;51.022;6.818;2022-11-27T07:01:51;5.20;99.90
6407;DHT22;3236;51.022;6.818;2022-11-27T07:04:20;5.20;99.90
6407;DHT22;3236;51.022;6.818;2022-11-27T07:06:52;5.20;99.90
6407;DHT22;3236;51.022;6.818;2022-11-27T07:09:19;5.20;99.90
6407;DHT22;3236;51.022;6.818;2022-11-27T07:11:46;5.30;99.90
6407;DHT22;3236;51.022;6.818;2022-11-27T07:14:12;5.30;99.90
6407;DHT22;3236;51.022;6.818;2022-11-27T07:16:41;5.30;99.90
6407;DHT22;3236;51.022;6.818;2022-11-27T07:19:08;5.40;99.90
6407;DHT22;3236;51.022;6.818;2022-11-27T07:21:44;5.40;99.90
6407;DHT22;3236;51.022;6.818;2022-11-27T07:24:11;5.50;99.90
6407;DHT22;3236;51.022;6.818;2022-11-27T07:26:38;5.50;99.90
6407;DHT22;3236;51.022;6.818;2022-11-27T07:29:05;5.50;99.90
6407;DHT22;3236;51.022;6.818;2022-11-27T07:31:32;5.60;99.90
6407;DHT22;3236;51.022;6.818;2022-11-27T07:34:00;5.50;99.90
6407;DHT22;3236;51.022;6.818;2022-11-27T07:36:27;5.60;99.90
6407;DHT22;3236;51.022;6.818;2022-11-27T07:38:55;5.60;99.90
6407;DHT22;3236;51.022;6.818;2022-11-27T07:41:22;5.70;99.90
6407;DHT22;3236;51.022;6.818;2022-11-27T07:43:49;5.70;99.90
6407;DHT22;3236;51.022;6.818;2022-11-27T07:46:16;5.70;99.90
6407;DHT22;3236;51.022;6.818;2022-11-27T07:48:43;5.80;99.90
6407;DHT22;3236;51.022;6.818;2022-11-27T07:51:12;5.80;99.90
6407;DHT22;3236;51.022;6.818;2022-11-27T07:53:41;5.90;99.90
6407;DHT22;3236;51.022;6.818;2022-11-27T07:56:08;5.90;99.90
6407;DHT22;3236;51.022;6.818;2022-11-27T07:58:35;5.90;99.90
6407;DHT22;3236;51.022;6.818;2022-11-27T08:01:04;6.00;99.90
6407;DHT22;3236;51.022;6.818;2022-11-27T08:03:31;6.00;99.90
6407;DHT22;3236;51.022;6.818;2022-11-27T08:05:58;6.10;99.90
6407;DHT22;3236;51.022;6.818;2022-11-27T08:08:26;6.10;99.90
6407;DHT22;3236;51.022;6.818;2022-11-27T08:10:53;6.20;99.90
6407;DHT22;3236;51.022;6.818;2022-11-27T08:13:20;6.10;99.90
6407;DHT22;3236;51.022;6.818;2022-11-27T08:15:47;6.30;99.90
6407;DHT22;3236;51.022;6.818;2022-11-27T08:18:14;6.20;99.90
6407;DHT22;3236;51.022;6.818;2022-11-27T08:20:41;6.30;99.90
6407;DHT22;3236;51.022;6.818;2022-11-27T08:23:07;6.40;99.90
6407;DHT22;3236;51.022;6.818;2022-11-27T08:25:37;6.50;99.90
6407;DHT22;3236;51.022;6.818;2022-11-27T08:28:04;6.70;99.90
6407;DHT22;3236;51.022;6.818;2022-11-27T08:30:31;6.70;99.90
6407;DHT22;3236;51.022;6.818;2022-11-27T08:32:57;6.70;99.90
6407;DHT22;3236;51.022;6.818;2022-11-27T08:35:24;6.80;99.90
6407;DHT22;3236;51.022;6.818;2022-11-27T08:37:51;6.80;99.90
6407;DHT22;3236;51.022;6.818;2022-11-27T08:40:18;6.90;99.90
6407;DHT22;3236;51.022;6.818;2022-11-27T08:42:46;8.50;99.90
6407;DHT22;3236;51.022;6.818;2022-11-27T08:45:13;7.10;99.90
6407;DHT22;3236;51.022;6.818;2022-11-27T08:47:40;7.20;99.90
6407;DHT22;3236;51.022;6.818;2022-11-27T08:50:08;7.20;99.90
6407;DHT22;3236;51.022;6.818;2022-11-27T08:52:38;7.20;99.90
6407;DHT22;3236;51.022;6.818;2022-11-27T08:55:05;7.20;99.90
6407;DHT22;3236;51.022;6.818;2022-11-27T08:57:32;7.20;99.90
6407;DHT22;3236;51.022;6.818;2022-11-27T09:02:29;7.20;99.90
6407;DHT22;3236;51.022;6.818;2022-11-27T09:04:58;7.30;99.90
6407;DHT22;3236;51.022;6.818;2022-11-27T09:07:28;7.30;99.90
6407;DHT22;3236;51.022;6.818;2022-11-27T09:09:54;7.30;99.90
6407;DHT22;3236;51.022;6.818;2022-11-27T09:12:21;7.30;99.90
6407;DHT22;3236;51.022;6.818;2022-11-27T09:14:48;7.30;99.90
6407;DHT22;3236;51.022;6.818;2022-11-27T09:17:15;7.40;99.90
6407;DHT22;3236;51.022;6.818;2022-11-27T09:19:44;7.50;99.90
6407;DHT22;3236;51.022;6.818;2022-11-27T09:22:10;7.50;99.90
6407;DHT22;3236;51.022;6.818;2022-11-27T09:24:37;7.50;99.90
6407;DHT22;3236;51.022;6.818;2022-11-27T09:27:04;7.60;99.90
6407;DHT22;3236;51.022;6.818;2022-11-27T09:29:32;7.60;99.90
6407;DHT22;3236;51.022;6.818;2022-11-27T09:31:59;7.70;99.90
6407;DHT22;3236;51.022;6.818;2022-11-27T09:34:27;7.70;99.90
6407;DHT22;3236;51.022;6.818;2022-11-27T09:36:56;7.80;99.90
6407;DHT22;3236;51.022;6.818;2022-11-27T09:39:22;7.90;99.90
6407;DHT22;3236;51.022;6.818;2022-11-27T09:41:54;7.80;99.90
6407;DHT22;3236;51.022;6.818;2022-11-27T09:44:24;8.00;99.90
6407;DHT22;3236;51.022;6.818;2022-11-27T09:47:00;8.00;99.90
6407;DHT22;3236;51.022;6.818;2022-11-27T09:49:30;8.10;99.90
6407;DHT22;3236;51.022;6.818;2022-11-27T09:52:02;8.20;99.90
6407;DHT22;3236;51.022;6.818;2022-11-27T09:54:31;8.10;99.90
6407;DHT22;3236;51.022;6.818;2022-11-27T09:57:09;8.20;99.90
6407;DHT22;3236;51.022;6.818;2022-11-27T09:59:40;8.20;99.90
6407;DHT22;3236;51.022;6.818;2022-11-27T10:02:13;8.20;99.90
6407;DHT22;3236;51.022;6.818;2022-11-27T10:04:41;8.20;99.90
6407;DHT22;3236;51.022;6.818;2022-11-27T10:07:14;8.20;99.90
6407;DHT22;3236;51.022;6.818;2022-11-27T10:09:56;8.10;99.90
6407;DHT22;3236;51.022;6.818;2022-11-27T10:12:30;8.00;99.90
6407;DHT22;3236;51.022;6.818;2022-11-27T10:15:03;8.10;99.90
6407;DHT22;3236;51.022;6.818;2022-11-27T10:17:32;8.20;99.90
6407;DHT22;3236;51.022;6.818;2022-11-27T10:20:04;8.30;99.90
6407;DHT22;3236;51.022;6.818;2022-11-27T10:22:38;8.10;99.90
6407;DHT22;3236;51.022;6.818;2022-11-27T10:25:09;8.10;99.90
6407;DHT22;3236;51.022;6.818;2022-11-27T10:27:39;8.00;99.90
6407;DHT22;3236;51.022;6.818;2022-11-27T10:30:12;8.00;99.90
6407;DHT22;3236;51.022;6.818;2022-11-27T10:32:40;8.00;99.90
6407;DHT22;3236;51.022;6.818;2022-11-27T10:37:55;8.20;99.90
6407;DHT22;3236;51.022;6.818;2022-11-27T10:40:26;8.20;99.90
6407;DHT22;3236;51.022;6.818;2022-11-27T10:42:57;8.20;99.90
6407;DHT22;3236;51.022;6.818;2022-11-27T10:45:27;8.20;99.90
6407;DHT22;3236;51.022;6.818;2022-11-27T10:47:57;8.10;99.90
6407;DHT22;3236;51.022;6.818;2022-11-27T10:50:23;8.20;99.90
6407;DHT22;3236;51.022;6.818;2022-11-27T10:52:51;7.60;99.90
6407;DHT22;3236;51.022;6.818;2022-11-27T10:55:24;8.40;99.90
6407;DHT22;3236;51.022;6.818;2022-11-27T10:57:59;8.50;99.90
6407;DHT22;3236;51.022;6.818;2022-11-27T11:00:28;8.40;99.90
6407;DHT22;3236;51.022;6.818;2022-11-27T11:02:58;8.40;99.90
6407;DHT22;3236;51.022;6.818;2022-11-27T11:05:26;8.50;99.90
6407;DHT22;3236;51.022;6.818;2022-11-27T11:07:54;8.50;99.90
6407;DHT22;3236;51.022;6.818;2022-11-27T11:10:24;8.50;99.90
6407;DHT22;3236;51.022;6.818;2022-11-27T11:13:02;8.50;99.90
6407;DHT22;3236;51.022;6.818;2022-11-27T11:15:29;8.60;99.90
6407;DHT22;3236;51.022;6.818;2022-11-27T11:17:56;8.50;99.90
6407;DHT22;3236;51.022;6.818;2022-11-27T11:20:23;8.90;99.90
6407;DHT22;3236;51.022;6.818;2022-11-27T11:22:50;8.60;99.90
6407;DHT22;3236;51.022;6.818;2022-11-27T11:25:18;8.70;99.90
6407;DHT22;3236;51.022;6.818;2022-11-27T11:27:49;8.70;99.90
6407;DHT22;3236;51.022;6.818;2022-11-27T11:30:23;8.70;99.90
6407;DHT22;3236;51.022;6.818;2022-11-27T11:32:50;8.70;99.90
6407;DHT22;3236;51.022;6.818;2022-11-27T11:35:24;8.70;99.90
6407;DHT22;3236;51.022;6.818;2022-11-27T11:37:52;8.70;99.90
6407;DHT22;3236;51.022;6.818;2022-11-27T11:40:20;8.70;99.90
6407;DHT22;3236;51.022;6.818;2022-11-27T11:42:51;8.70;99.90
6407;DHT22;3236;51.022;6.818;2022-11-27T11:45:18;8.70;99.90
6407;DHT22;3236;51.022;6.818;2022-11-27T11:47:47;8.70;99.90
6407;DHT22;3236;51.022;6.818;2022-11-27T11:50:15;8.70;99.90
6407;DHT22;3236;51.022;6.818;2022-11-27T11:52:49;8.80;99.90
6407;DHT22;3236;51.022;6.818;2022-11-27T11:55:21;8.80;99.90
6407;DHT22;3236;51.022;6.818;2022-11-27T11:58:00;8.90;99.90
6407;DHT22;3236;51.022;6.818;2022-11-27T12:00:31;9.00;99.90
6407;DHT22;3236;51.022;6.818;2022-11-27T12:03:11;9.60;99.90
6407;DHT22;3236;51.022;6.818;2022-11-27T12:05:41;9.20;99.90
6407;DHT22;3236;51.022;6.818;2022-11-27T12:08:20;9.20;99.90
6407;DHT22;3236;51.022;6.818;2022-11-27T12:10:51;9.40;99.90
6407;DHT22;3236;51.022;6.818;2022-11-27T12:13:26;9.30;99.90
6407;DHT22;3236;51.022;6.818;2022-11-27T12:15:56;9.30;99.90
6407;DHT22;3236;51.022;6.818;2022-11-27T12:18:31;9.30;99.90
6407;DHT22;3236;51.022;6.818;2022-11-27T12:21:04;9.20;99.90
6407;DHT22;3236;51.022;6.818;2022-11-27T12:23:47;9.20;99.90
6407;DHT22;3236;51.022;6.818;2022-11-27T12:26:16;9.40;99.90
6407;DHT22;3236;51.022;6.818;2022-11-27T12:31:33;9.40;99.90
6407;DHT22;3236;51.022;6.818;2022-11-27T12:34:04;10.50;99.90
6407;DHT22;3236;51.022;6.818;2022-11-27T12:36:40;9.40;99.90
6407;DHT22;3236;51.022;6.818;2022-11-27T12:39:09;9.40;99.90
6407;DHT22;3236;51.022;6.818;2022-11-27T12:41:46;9.50;99.90
6407;DHT22;3236;51.022;6.818;2022-11-27T12:44:19;9.50;99.90
6407;DHT22;3236;51.022;6.818;2022-11-27T12:46:50;9.50;99.90
6407;DHT22;3236;51.022;6.818;2022-11-27T12:49:19;9.50;99.90
6407;DHT22;3236;51.022;6.818;2022-11-27T12:51:48;9.40;99.90
6407;DHT22;3236;51.022;6.818;2022-11-27T12:54:17;9.60;99.90
6407;DHT22;3236;51.022;6.818;2022-11-27T12:56:47;9.50;99.90
6407;DHT22;3236;51.022;6.818;2022-11-27T12:59:15;9.50;99.90
6407;DHT22;3236;51.022;6.818;2022-11-27T13:01:45;9.50;99.90
6407;DHT22;3236;51.022;6.818;2022-11-27T13:04:19;9.60;99.90
6407;DHT22;3236;51.022;6.818;2022-11-27T13:06:49;9.60;99.90
6407;DHT22;3236;51.022;6.818;2022-11-27T13:09:19;9.50;99.90
6407;DHT22;3236;51.022;6.818;2022-11-27T13:11:53;9.60;99.90
6407;DHT22;3236;51.022;6.818;2022-11-27T13:14:21;9.70;99.90
6407;DHT22;3236;51.022;6.818;2022-11-27T13:16:50;9.70;99.90
6407;DHT22;3236;51.022;6.818;2022-11-27T13:19:21;9.70;99.90
6407;DHT22;3236;51.022;6.818;2022-11-27T13:21:52;9.80;99.90
6407;DHT22;3236;51.022;6.818;2022-11-27T13:24:20;9.70;99.90
6407;DHT22;3236;51.022;6.818;2022-11-27T13:26:50;9.80;99.90
6407;DHT22;3236;51.022;6.818;2022-11-27T13:29:20;9.70;99.90
6407;DHT22;3236;51.022;6.818;2022-11-27T13:31:53;9.70;99.90
6407;DHT22;3236;51.022;6.818;2022-11-27T13:34:32;9.70;99.90
6407;DHT22;3236;51.022;6.818;2022-11-27T13:37:00;9.70;99.90
6407;DHT22;3236;51.022;6.818;2022-11-27T13:39:31;9.60;99.90
6407;DHT22;3236;51.022;6.818;2022-11-27T13:42:01;9.60;99.90
6407;DHT22;3236;51.022;6.818;2022-11-27T13:44:30;9.50;99.90
6407;DHT22;3236;51.022;6.818;2022-11-27T13:46:59;9.30;99.90
6407;DHT22;3236;51.022;6.818;2022-11-27T13:49:32;9.40;99.90
6407;DHT22;3236;51.022;6.818;2022-11-27T13:52:04;9.40;99.90
6407;DHT22;3236;51.022;6.818;2022-11-27T13:54:32;9.40;99.90
6407;DHT22;3236;51.022;6.818;2022-11-27T13:57:10;8.70;99.90
6407;DHT22;3236;51.022;6.818;2022-11-27T13:59:37;9.20;99.90
6407;DHT22;3236;51.022;6.818;2022-11-27T14:04:33;9.10;99.90
6407;DHT22;3236;51.022;6.818;2022-11-27T14:07:00;9.00;99.90
6407;DHT22;3236;51.022;6.818;2022-11-27T14:09:31;9.00;99.90
6407;DHT22;3236;51.022;6.818;2022-11-27T14:11:59;9.40;99.90
6407;DHT22;3236;51.022;6.818;2022-11-27T14:14:26;8.80;99.90
6407;DHT22;3236;51.022;6.818;2022-11-27T14:16:54;8.80;99.90
6407;DHT22;3236;51.022;6.818;2022-11-27T14:19:23;8.70;99.90
6407;DHT22;3236;51.022;6.818;2022-11-27T14:21:53;8.70;99.90
6407;DHT22;3236;51.022;6.818;2022-11-27T14:24:24;8.90;99.90
6407;DHT22;3236;51.022;6.818;2022-11-27T14:26:51;8.60;99.90
6407;DHT22;3236;51.022;6.818;2022-11-27T14:29:18;8.60;99.90
6407;DHT22;3236;51.022;6.818;2022-11-27T14:34:30;8.60;99.90
6407;DHT22;3236;51.022;6.818;2022-11-27T14:36:59;8.60;99.90
6407;DHT22;3236;51.022;6.818;2022-11-27T14:39:27;8.70;99.90
6407;DHT22;3236;51.022;6.818;2022-11-27T14:41:54;8.70;99.90
6407;DHT22;3236;51.022;6.818;2022-11-27T14:44:22;8.60;99.90
6407;DHT22;3236;51.022;6.818;2022-11-27T14:47:15;8.30;99.90
6407;DHT22;3236;51.022;6.818;2022-11-27T14:49:44;8.60;99.90
6407;DHT22;3236;51.022;6.818;2022-11-27T14:52:14;8.70;99.90
6407;DHT22;3236;51.022;6.818;2022-11-27T14:54:43;7.20;99.90
6407;DHT22;3236;51.022;6.818;2022-11-27T14:57:22;8.70;99.90
6407;DHT22;3236;51.022;6.818;2022-11-27T15:00:03;8.50;99.90
6407;DHT22;3236;51.022;6.818;2022-11-27T15:02:41;8.30;99.90
6407;DHT22;3236;51.022;6.818;2022-11-27T15:05:17;8.70;99.90
6407;DHT22;3236;51.022;6.818;2022-11-27T15:07:46;8.20;99.90
6407;DHT22;3236;51.022;6.818;2022-11-27T15:10:26;8.30;99.90
6407;DHT22;3236;51.022;6.818;2022-11-27T15:12:54;8.20;99.90
6407;DHT22;3236;51.022;6.818;2022-11-27T15:15:23;7.90;99.90
6407;DHT22;3236;51.022;6.818;2022-11-27T15:17:56;8.50;99.90
6407;DHT22;3236;51.022;6.818;2022-11-27T15:20:25;8.20;99.90
6407;DHT22;3236;51.022;6.818;2022-11-27T15:22:58;8.10;99.90
6407;DHT22;3236;51.022;6.818;2022-11-27T15:25:45;7.90;99.90
6407;DHT22;3236;51.022;6.818;2022-11-27T15:28:28;8.00;99.90
6407;DHT22;3236;51.022;6.818;2022-11-27T15:30:56;7.90;99.90
6407;DHT22;3236;51.022;6.818;2022-11-27T15:33:28;7.90;99.90
6407;DHT22;3236;51.022;6.818;2022-11-27T15:36:13;7.80;99.90
6407;DHT22;3236;51.022;6.818;2022-11-27T15:38:41;7.70;99.90
6407;DHT22;3236;51.022;6.818;2022-11-27T15:41:23;7.80;99.90
6407;DHT22;3236;51.022;6.818;2022-11-27T15:43:50;7.80;99.90
6407;DHT22;3236;51.022;6.818;2022-11-27T15:46:22;8.00;99.90
6407;DHT22;3236;51.022;6.818;2022-11-27T15:48:52;7.50;99.90
6407;DHT22;3236;51.022;6.818;2022-11-27T15:51:19;7.70;99.90
6407;DHT22;3236;51.022;6.818;2022-11-27T15:56:14;7.60;99.90
6407;DHT22;3236;51.022;6.818;2022-11-27T15:58:41;8.10;99.90
6407;DHT22;3236;51.022;6.818;2022-11-27T16:01:09;7.80;99.90
6407;DHT22;3236;51.022;6.818;2022-11-27T16:03:36;7.50;99.90
6407;DHT22;3236;51.022;6.818;2022-11-27T16:06:07;7.30;99.90
6407;DHT22;3236;51.022;6.818;2022-11-27T16:08:34;7.60;99.90
6407;DHT22;3236;51.022;6.818;2022-11-27T16:11:03;7.50;99.90
6407;DHT22;3236;51.022;6.818;2022-11-27T16:13:31;7.70;99.90
6407;DHT22;3236;51.022;6.818;2022-11-27T16:16:00;7.60;99.90
6407;DHT22;3236;51.022;6.818;2022-11-27T16:18:28;7.50;99.90
6407;DHT22;3236;51.022;6.818;2022-11-27T16:20:55;7.60;99.90
6407;DHT22;3236;51.022;6.818;2022-11-27T16:23:24;7.90;99.90
6407;DHT22;3236;51.022;6.818;2022-11-27T16:25:51;7.90;99.90
6407;DHT22;3236;51.022;6.818;2022-11-27T16:28:18;7.80;99.90
6407;DHT22;3236;51.022;6.818;2022-11-27T16:30:45;7.30;99.90
6407;DHT22;3236;51.022;6.818;2022-11-27T16:33:12;7.40;99.90
6407;DHT22;3236;51.022;6.818;2022-11-27T16:35:41;7.50;99.90
6407;DHT22;3236;51.022;6.818;2022-11-27T16:38:08;7.90;99.90
6407;DHT22;3236;51.022;6.818;2022-11-27T16:40:36;7.50;99.90
6407;DHT22;3236;51.022;6.818;2022-11-27T16:43:03;7.80;99.90
6407;DHT22;3236;51.022;6.818;2022-11-27T16:45:31;7.20;99.90
6407;DHT22;3236;51.022;6.818;2022-11-27T16:48:01;7.50;99.90
6407;DHT22;3236;51.022;6.818;2022-11-27T16:50:28;7.60;99.90
6407;DHT22;3236;51.022;6.818;2022-11-27T16:52:56;7.30;99.90